Time;durP1;ratioP1;P1;durP2;ratioP2;P2;SDS_P1;SDS_P2;PMS_P1;PMS_P2;Temp;Humidity;BMP_temperature;BMP_pressure;BME280_temperature;BME280_humidity;BME280_pressure;Samples;Min_cycle;Max_cycle;Signal;HPM_P1;HPM_P2
2021/11/01 00:00:49;;;;;;;4.32;3.15;;;;;;;8.62;100.00;94035.34;5009493;28;20061;-60
2021/11/01 00:03:15;;;;;;;4.53;3.50;;;;;;;8.67;100.00;94021.94;5008733;28;20025;-59
2021/11/01 00:05:47;;;;;;;5.07;3.22;;;;;;;8.72;100.00;94029.16;5010601;28;20400;-56
2021/11/01 00:08:15;;;;;;;3.73;3.10;;;;;;;8.80;100.00;94027.75;5010670;28;20488;-60
2021/11/01 00:10:44;;;;;;;3.95;3.25;;;;;;;8.85;100.00;94036.50;5010436;28;20030;-60
2021/11/01 00:13:09;;;;;;;4.57;3.20;;;;;;;8.89;100.00;94023.38;5008823;28;20022;-61
2021/11/01 00:15:35;;;;;;;4.85;3.40;;;;;;;8.90;100.00;94020.47;5009958;28;20033;-59
2021/11/01 00:18:01;;;;;;;4.60;3.20;;;;;;;8.91;100.00;94011.38;5009178;28;20032;-61
2021/11/01 00:20:27;;;;;;;4.25;3.10;;;;;;;8.94;100.00;94004.66;4976643;28;20471;-60
2021/11/01 00:22:52;;;;;;;4.90;3.40;;;;;;;8.96;100.00;94003.31;5009761;28;20136;-61
2021/11/01 00:25:18;;;;;;;3.95;3.25;;;;;;;9.03;100.00;94007.53;5002792;28;20023;-61
2021/11/01 00:27:44;;;;;;;5.68;3.55;;;;;;;9.04;100.00;94003.78;4990970;28;20033;-60
2021/11/01 00:30:10;;;;;;;3.78;3.13;;;;;;;9.05;100.00;94006.16;4989111;28;20392;-62
2021/11/01 00:32:39;;;;;;;3.60;2.90;;;;;;;9.07;100.00;93997.88;4978165;28;20031;-62
2021/11/01 00:35:23;;;;;;;4.57;3.08;;;;;;;9.07;100.00;93990.66;5008609;28;20552;-61
2021/11/01 00:37:48;;;;;;;4.10;2.90;;;;;;;9.06;100.00;93998.94;5008728;28;20026;-61
2021/11/01 00:40:14;;;;;;;4.95;3.22;;;;;;;9.04;100.00;94006.44;5009126;28;20048;-62
2021/11/01 00:42:45;;;;;;;3.67;2.90;;;;;;;9.00;100.00;94001.66;4992228;28;20270;-62
2021/11/01 00:45:13;;;;;;;3.30;2.80;;;;;;;8.97;100.00;93994.22;5009755;28;20114;-61
2021/11/01 00:47:39;;;;;;;3.50;2.72;;;;;;;8.93;100.00;93997.72;5008851;28;20038;-61
2021/11/01 00:50:05;;;;;;;3.45;2.78;;;;;;;8.92;100.00;93993.47;5010104;28;20052;-62
2021/11/01 00:52:31;;;;;;;3.10;2.78;;;;;;;8.91;100.00;93989.22;5009434;28;20173;-62
2021/11/01 00:55:03;;;;;;;4.75;3.28;;;;;;;8.89;100.00;93991.34;5009756;28;20139;-61
2021/11/01 00:57:32;;;;;;;3.47;2.85;;;;;;;8.86;100.00;93986.56;5009672;28;20102;-62
2021/11/01 00:59:59;;;;;;;4.00;2.58;;;;;;;8.82;100.00;93985.56;5009525;28;20065;-62
2021/11/01 01:02:26;;;;;;;4.15;2.65;;;;;;;8.76;100.00;93978.66;5007657;28;20018;-60
2021/11/01 01:04:52;;;;;;;3.20;2.45;;;;;;;8.66;100.00;93974.97;5009633;28;20358;-61
2021/11/01 01:07:17;;;;;;;3.53;2.33;;;;;;;8.64;100.00;93976.34;5009813;28;20037;-60
2021/11/01 01:09:43;;;;;;;3.03;2.00;;;;;;;8.61;100.00;93976.91;5009125;28;20022;-61
2021/11/01 01:12:09;;;;;;;2.63;2.13;;;;;;;8.60;100.00;93973.44;5007454;28;20056;-61
2021/11/01 01:14:41;;;;;;;2.45;1.92;;;;;;;8.58;100.00;93972.94;5008322;28;20407;-62
2021/11/01 01:17:06;;;;;;;2.28;1.90;;;;;;;8.55;100.00;93973.47;5008117;28;20025;-61
2021/11/01 01:19:43;;;;;;;2.53;1.67;;;;;;;8.59;100.00;93973.72;5008142;28;20026;-61
2021/11/01 01:22:21;;;;;;;1.60;1.50;;;;;;;8.60;100.00;93969.97;5008788;28;20033;-55
2021/11/01 01:24:47;;;;;;;1.73;1.58;;;;;;;8.60;100.00;93975.31;5005726;28;20038;-60
2021/11/01 01:27:12;;;;;;;2.20;1.70;;;;;;;8.62;100.00;93970.50;4987763;28;20034;-57
2021/11/01 01:29:37;;;;;;;3.30;1.52;;;;;;;8.59;100.00;93963.06;4988532;28;20041;-56
2021/11/01 01:32:05;;;;;;;3.10;1.50;;;;;;;8.51;100.00;93963.66;4981644;28;20019;-57
2021/11/01 01:34:30;;;;;;;1.80;1.50;;;;;;;8.48;100.00;93958.88;5002958;28;20039;-57
2021/11/01 01:36:59;;;;;;;1.30;1.13;;;;;;;8.46;100.00;93964.47;5008671;28;20026;-58
2021/11/01 01:39:25;;;;;;;2.40;1.50;;;;;;;8.46;100.00;93956.47;5008932;28;20408;-55
2021/11/01 01:41:51;;;;;;;2.00;1.52;;;;;;;8.42;100.00;93958.91;5007501;28;20038;-53
2021/11/01 01:44:18;;;;;;;1.45;1.30;;;;;;;8.38;100.00;93952.53;5007671;28;20042;-56
2021/11/01 01:46:47;;;;;;;1.50;1.40;;;;;;;8.34;100.00;93954.16;5008152;28;20032;-56
2021/11/01 01:49:12;;;;;;;1.60;1.50;;;;;;;8.37;100.00;93942.94;5007817;28;20025;-57
2021/11/01 01:51:38;;;;;;;2.33;1.05;;;;;;;8.41;100.00;93948.50;5007346;28;20528;-55
2021/11/01 01:54:06;;;;;;;2.67;1.27;;;;;;;8.42;100.00;93937.53;5007531;28;20138;-57
2021/11/01 01:56:32;;;;;;;1.23;1.10;;;;;;;8.47;100.00;93938.59;5007884;28;20079;-56
2021/11/01 01:59:05;;;;;;;1.42;1.13;;;;;;;8.50;100.00;93941.50;5007653;28;20030;-57
2021/11/01 02:01:37;;;;;;;1.50;1.08;;;;;;;8.54;100.00;93933.72;5007228;28;20055;-55
2021/11/01 02:04:04;;;;;;;1.55;1.10;;;;;;;8.56;100.00;93935.03;4991061;28;20125;-58
2021/11/01 02:06:51;;;;;;;1.10;0.93;;;;;;;8.60;100.00;93935.28;4991334;28;20034;-55
2021/11/01 02:09:31;;;;;;;1.35;1.10;;;;;;;8.61;100.00;93940.34;5007229;28;20091;-55
2021/11/01 02:12:09;;;;;;;1.30;1.00;;;;;;;8.64;100.00;93933.63;4990670;28;20026;-55
2021/11/01 02:14:53;;;;;;;0.95;0.90;;;;;;;8.65;100.00;93932.56;5008220;28;20030;-58
2021/11/01 02:17:29;;;;;;;1.23;1.08;;;;;;;8.66;100.00;93934.94;5008590;28;20034;-59
2021/11/01 02:20:03;;;;;;;1.33;1.02;;;;;;;8.66;100.00;93936.81;5007463;28;20176;-55
2021/11/01 02:22:42;;;;;;;2.63;1.30;;;;;;;8.64;100.00;93936.31;5008041;28;20098;-59
2021/11/01 02:25:42;;;;;;;1.20;0.90;;;;;;;8.60;100.00;93927.28;5000770;28;20441;-57
2021/11/01 02:28:14;;;;;;;1.33;1.00;;;;;;;8.60;100.00;93925.41;4987825;28;20559;-54
2021/11/01 02:30:40;;;;;;;1.35;1.00;;;;;;;8.63;100.00;93926.72;4987486;28;20030;-57
2021/11/01 02:33:07;;;;;;;1.10;0.80;;;;;;;8.65;100.00;93927.22;4963669;28;20121;-57
2021/11/01 02:35:32;;;;;;;2.85;1.33;;;;;;;8.68;100.00;93921.31;5008051;28;20033;-56
2021/11/01 02:37:58;;;;;;;3.42;1.38;;;;;;;8.77;100.00;93922.28;5006826;28;20645;-57
2021/11/01 02:40:30;;;;;;;1.20;0.90;;;;;;;8.91;100.00;93915.22;5006873;28;20033;-56
2021/11/01 02:42:59;;;;;;;3.13;1.80;;;;;;;9.13;100.00;93920.09;5006380;28;20157;-58
2021/11/01 02:45:26;;;;;;;4.07;1.40;;;;;;;9.43;100.00;93921.59;5008274;28;20041;-58
2021/11/01 02:47:54;;;;;;;1.70;1.40;;;;;;;9.66;100.00;93916.50;5008252;28;20493;-56
2021/11/01 02:50:22;;;;;;;2.22;1.77;;;;;;;9.78;100.00;93909.66;4990966;28;20488;-57
2021/11/01 02:52:48;;;;;;;2.30;1.60;;;;;;;9.97;100.00;93906.19;5007803;28;20026;-61
2021/11/01 02:55:14;;;;;;;2.20;1.73;;;;;;;10.36;100.00;93897.88;5008621;28;20045;-55
2021/11/01 02:57:43;;;;;;;2.88;2.03;;;;;;;10.71;100.00;93888.47;5008666;28;20388;-57
2021/11/01 03:00:09;;;;;;;4.43;2.00;;;;;;;10.94;100.00;93884.03;5006412;28;20025;-58
2021/11/01 03:02:35;;;;;;;2.53;2.03;;;;;;;11.08;100.00;93887.53;5006283;28;20045;-58
2021/11/01 03:05:24;;;;;;;4.47;2.42;;;;;;;11.20;100.00;93877.13;4990158;28;20030;-59
2021/11/01 03:07:51;;;;;;;2.45;2.00;;;;;;;11.20;100.00;93871.75;4990536;28;20389;-58
2021/11/01 03:10:21;;;;;;;3.10;2.53;;;;;;;11.19;100.00;93869.38;5007445;28;20041;-57
2021/11/01 03:12:51;;;;;;;4.72;2.40;;;;;;;11.11;100.00;93860.13;4990264;28;20030;-59
2021/11/01 03:15:23;;;;;;;3.92;2.90;;;;;;;11.03;100.00;93850.91;5006962;28;20034;-57
2021/11/01 03:17:52;;;;;;;3.75;3.00;;;;;;;10.94;100.00;93846.53;5006619;28;20030;-60
2021/11/01 03:20:21;;;;;;;4.30;3.10;;;;;;;10.84;100.00;93857.44;5007016;28;20492;-61
2021/11/01 03:23:04;;;;;;;4.97;3.25;;;;;;;10.77;100.00;93854.34;5005788;28;20075;-57
2021/11/01 03:25:38;;;;;;;3.88;2.97;;;;;;;10.72;100.00;93865.94;4977869;28;20143;-59
2021/11/01 03:28:05;;;;;;;6.82;4.05;;;;;;;10.72;100.00;93872.09;4985826;28;20374;-55
2021/11/01 03:30:32;;;;;;;5.78;3.72;;;;;;;10.73;100.00;93892.41;4987110;28;20034;-58
2021/11/01 03:32:58;;;;;;;5.28;4.13;;;;;;;10.72;100.00;93892.72;4967202;28;20058;-58
2021/11/01 03:35:25;;;;;;;5.53;3.95;;;;;;;10.70;100.00;93909.09;4977944;28;20065;-59
2021/11/01 03:37:53;;;;;;;5.57;4.03;;;;;;;10.63;100.00;93915.91;4986786;28;20023;-58
2021/11/01 03:40:20;;;;;;;5.35;3.83;;;;;;;10.56;100.00;93939.59;4987908;28;20072;-61
2021/11/01 03:42:52;;;;;;;5.30;3.38;;;;;;;10.49;100.00;93950.66;4967278;28;20502;-57
2021/11/01 03:45:22;;;;;;;4.18;2.90;;;;;;;10.38;100.00;93958.06;4990610;28;20441;-57
2021/11/01 03:48:01;;;;;;;3.53;2.63;;;;;;;10.34;100.00;93973.13;5007856;28;20392;-57
2021/11/01 03:50:32;;;;;;;3.30;2.20;;;;;;;10.29;100.00;93993.78;5006307;28;20025;-57
2021/11/01 03:53:06;;;;;;;2.67;2.00;;;;;;;10.23;100.00;93997.66;5009260;28;20034;-60
2021/11/01 03:55:35;;;;;;;3.28;1.77;;;;;;;10.20;100.00;94000.84;5009539;28;20361;-53
2021/11/01 03:58:04;;;;;;;3.10;1.70;;;;;;;10.14;100.00;94013.50;4993612;28;20388;-57
2021/11/01 04:00:40;;;;;;;3.95;2.00;;;;;;;10.11;100.00;94019.44;5009088;28;20025;-55
2021/11/01 04:03:08;;;;;;;2.30;1.85;;;;;;;10.07;100.00;94029.09;4992899;28;20477;-56
2021/11/01 04:05:34;;;;;;;2.72;1.80;;;;;;;10.05;100.00;94037.44;5008952;28;20034;-57
2021/11/01 04:08:05;;;;;;;1.83;1.55;;;;;;;10.02;100.00;94050.59;5008851;28;20499;-57
2021/11/01 04:10:37;;;;;;;1.70;1.40;;;;;;;10.01;100.00;94047.13;5010489;28;20034;-56
2021/11/01 04:13:05;;;;;;;2.63;1.50;;;;;;;9.98;100.00;94061.03;5009990;28;20030;-56
2021/11/01 04:15:36;;;;;;;3.17;1.50;;;;;;;9.95;100.00;94075.00;5009510;28;20481;-54
2021/11/01 04:18:08;;;;;;;2.42;1.45;;;;;;;9.92;100.00;94083.59;5009298;28;20044;-53
2021/11/01 04:23:26;;;;;;;2.63;0.82;;;;;;;9.80;100.00;94094.69;5010015;28;20494;-56
2021/11/01 04:25:51;;;;;;;1.02;0.70;;;;;;;9.79;100.00;94097.66;4996948;28;20038;-60
2021/11/01 04:28:20;;;;;;;3.45;0.88;;;;;;;9.73;100.00;94085.41;4990780;28;20033;-56
2021/11/01 04:30:54;;;;;;;0.95;0.55;;;;;;;9.69;100.00;94105.78;4989230;28;20060;-53
2021/11/01 04:33:23;;;;;;;0.40;0.40;;;;;;;9.59;100.00;94102.13;4985498;28;20491;-53
2021/11/01 04:35:48;;;;;;;0.85;0.50;;;;;;;9.53;100.00;94107.78;5008375;28;20033;-61
2021/11/01 04:54:48;;;;;;;1.70;0.35;;;;;;;9.32;100.00;94114.38;5009174;28;20037;-60
2021/11/01 04:57:18;;;;;;;0.88;0.40;;;;;;;9.30;100.00;94128.03;5009411;28;20095;-54
2021/11/01 04:59:43;;;;;;;1.45;0.35;;;;;;;9.22;100.00;94128.63;5008504;28;20026;-56
2021/11/01 05:02:09;;;;;;;1.58;0.50;;;;;;;9.20;100.00;94128.91;5007790;28;20026;-57
2021/11/01 05:04:36;;;;;;;1.63;0.40;;;;;;;9.19;100.00;94130.00;5009342;28;20022;-57
2021/11/01 05:07:04;;;;;;;2.05;0.45;;;;;;;9.14;100.00;94131.91;5009282;28;20496;-61
2021/11/01 05:09:37;;;;;;;0.95;0.40;;;;;;;9.11;100.00;94141.25;5008691;28;20037;-60
2021/11/01 05:12:48;;;;;;;0.70;0.40;;;;;;;9.04;100.00;94146.16;5009184;28;20029;-62
2021/11/01 05:19:48;;;;;;;7.78;0.80;;;;;;;8.91;100.00;94152.91;5008792;28;20040;-61
2021/11/01 05:23:06;;;;;;;0.57;0.40;;;;;;;8.89;100.00;94154.25;5009814;28;20469;-62
2021/11/01 05:25:31;;;;;;;0.75;0.43;;;;;;;8.86;100.00;94160.13;4999745;28;20043;-62
2021/11/01 05:28:15;;;;;;;2.08;0.50;;;;;;;8.78;100.00;94166.84;4991821;28;20062;-62
2021/11/01 05:30:49;;;;;;;;;;;;;;;8.74;100.00;94168.47;4991840;28;20034;-62
2021/11/01 05:35:41;;;;;;;1.15;0.40;;;;;;;8.58;100.00;94175.78;5011323;28;20025;-62
2021/11/01 05:38:10;;;;;;;1.17;0.50;;;;;;;8.53;100.00;94180.34;5010143;28;20408;-62
2021/11/01 05:40:38;;;;;;;0.88;0.60;;;;;;;8.50;100.00;94189.69;5008982;28;20468;-61
2021/11/01 05:43:04;;;;;;;1.77;0.40;;;;;;;8.47;100.00;94200.91;5009735;28;20058;-62
2021/11/01 05:45:33;;;;;;;0.82;0.50;;;;;;;8.42;100.00;94203.59;5010552;28;20104;-62
2021/11/01 05:47:59;;;;;;;1.67;0.55;;;;;;;8.39;100.00;94206.81;5010411;28;20026;-62
2021/11/01 05:50:30;;;;;;;1.27;0.50;;;;;;;8.32;100.00;94208.94;5010951;28;20025;-62
2021/11/01 05:52:58;;;;;;;1.25;0.50;;;;;;;8.30;100.00;94214.53;5010042;28;20492;-62
2021/11/01 06:03:32;;;;;;;3.53;0.60;;;;;;;8.10;100.00;94225.25;4954796;28;20023;-62
2021/11/01 06:14:07;;;;;;;1.70;0.70;;;;;;;7.93;100.00;94260.22;5009491;28;20059;-62
2021/11/01 06:16:34;;;;;;;2.30;0.65;;;;;;;7.92;100.00;94268.47;5010979;28;20029;-62
2021/11/01 06:19:02;;;;;;;1.50;0.50;;;;;;;7.88;100.00;94276.22;5009780;28;20505;-62
2021/11/01 06:21:28;;;;;;;1.13;0.50;;;;;;;7.87;100.00;94268.50;5009452;28;20026;-62
2021/11/01 06:23:55;;;;;;;0.98;0.43;;;;;;;7.84;100.00;94280.50;5033810;28;20408;-61
2021/11/01 06:26:21;;;;;;;0.50;0.45;;;;;;;7.81;100.00;94281.00;5056420;28;20029;-62
2021/11/01 06:28:51;;;;;;;1.13;0.43;;;;;;;7.77;100.00;94291.41;5036893;28;20017;-62
2021/11/01 06:31:25;;;;;;;1.85;0.60;;;;;;;7.75;100.00;94298.88;5050362;28;20035;-62
2021/11/01 06:42:57;;;;;;;3.55;1.00;;;;;;;7.68;100.00;94289.53;5073022;28;20090;-62
2021/11/01 06:50:01;;;;;;;1.35;0.70;;;;;;;7.62;100.00;94326.06;5072916;28;20043;-62
2021/11/01 08:43:35;;;;;;;2.63;0.73;;;;;;;7.15;100.00;94348.31;5077549;28;20067;-63
2021/11/01 09:26:04;;;;;;;1.10;0.55;;;;;;;7.88;100.00;94302.09;5061707;28;20029;-62
2021/11/01 09:28:40;;;;;;;1.13;0.40;;;;;;;7.90;100.00;94313.28;5052924;28;20025;-63
2021/11/01 09:36:56;;;;;;;0.43;0.38;;;;;;;7.90;100.00;94300.75;5051924;28;20125;-63
2021/11/01 09:39:41;;;;;;;1.27;0.60;;;;;;;7.90;100.00;94286.59;5052691;28;20132;-63
2021/11/01 09:42:09;;;;;;;0.60;0.50;;;;;;;7.90;100.00;94295.41;5052188;28;20475;-63
2021/11/01 09:44:35;;;;;;;0.93;0.70;;;;;;;7.91;100.00;94290.88;5034472;28;20056;-63
2021/11/01 09:47:01;;;;;;;2.33;0.80;;;;;;;7.89;100.00;94287.69;5051725;28;20100;-63
2021/11/01 09:49:32;;;;;;;0.68;0.57;;;;;;;7.90;100.00;94289.28;5043705;28;20036;-62
2021/11/01 09:52:00;;;;;;;0.60;0.60;;;;;;;7.91;100.00;94299.69;5048920;28;20060;-63
2021/11/01 09:54:28;;;;;;;1.02;0.50;;;;;;;7.92;100.00;94284.47;5055114;28;20439;-64
2021/11/01 09:57:06;;;;;;;1.15;0.50;;;;;;;7.89;100.00;94277.81;5054484;28;20063;-62
2021/11/01 09:59:35;;;;;;;1.83;0.70;;;;;;;7.89;100.00;94279.69;5052031;28;20049;-63
2021/11/01 10:02:02;;;;;;;1.80;0.50;;;;;;;7.94;100.00;94277.84;5052787;28;20033;-63
2021/11/01 10:04:32;;;;;;;0.90;0.60;;;;;;;7.99;100.00;94269.00;5035158;28;20022;-62
2021/11/01 10:07:35;;;;;;;1.27;0.75;;;;;;;8.09;100.00;94277.00;5035990;28;20025;-63
2021/11/01 10:10:11;;;;;;;1.20;0.77;;;;;;;8.14;100.00;94275.16;5068930;28;20361;-62
2021/11/01 10:12:39;;;;;;;3.08;0.70;;;;;;;8.19;100.00;94265.53;5050391;28;20300;-62
2021/11/01 10:18:01;;;;;;;1.90;0.73;;;;;;;8.33;100.00;94266.56;5049460;28;20062;-63
2021/11/01 10:20:28;;;;;;;1.23;0.90;;;;;;;8.38;100.00;94271.94;5055090;28;20024;-63
2021/11/01 10:22:54;;;;;;;0.95;0.60;;;;;;;8.42;100.00;94267.63;5054182;28;20052;-63
2021/11/01 10:25:21;;;;;;;1.35;0.75;;;;;;;8.49;100.00;94262.03;5055465;28;20032;-62
2021/11/01 10:27:59;;;;;;;2.25;0.80;;;;;;;8.48;100.00;94255.09;5054408;28;20032;-63
2021/11/01 10:30:29;;;;;;;1.48;0.85;;;;;;;8.50;100.00;94248.41;5055425;28;20455;-63
2021/11/01 10:32:56;;;;;;;2.38;0.65;;;;;;;8.51;100.00;94251.88;5047191;28;20429;-63
2021/11/01 10:35:30;;;;;;;0.90;0.68;;;;;;;8.45;100.00;94258.28;5057143;28;20074;-63
2021/11/01 10:38:38;;;;;;;0.90;0.70;;;;;;;8.43;100.00;94246.00;5073964;28;20024;-63
2021/11/01 10:41:19;;;;;;;1.05;0.75;;;;;;;8.45;100.00;94236.94;5033949;28;20105;-63
2021/11/01 11:27:22;;;;;;;0.90;0.70;;;;;;;8.57;100.00;94213.41;5049958;28;20032;-59
2021/11/01 11:32:58;;;;;;;1.70;0.70;;;;;;;8.58;100.00;94212.34;5050977;28;20043;-61
2021/11/01 11:43:44;;;;;;;0.85;0.70;;;;;;;8.58;100.00;94172.31;5072797;28;20533;-60
2021/11/01 11:49:18;;;;;;;1.45;0.73;;;;;;;8.49;100.00;94171.28;5073134;28;19951;-60
2021/11/01 11:52:13;;;;;;;1.50;0.80;;;;;;;8.41;100.00;94164.63;5056006;28;20024;-59
2021/11/01 11:54:53;;;;;;;0.65;0.60;;;;;;;8.41;100.00;94172.66;5056245;28;20044;-57
2021/11/01 11:57:25;;;;;;;0.63;0.50;;;;;;;8.44;100.00;94166.75;5074060;28;20032;-63
2021/11/01 11:59:54;;;;;;;0.80;0.70;;;;;;;8.49;100.00;94168.63;5073306;28;20052;-64
2021/11/01 12:02:52;;;;;;;0.60;0.60;;;;;;;8.46;100.00;94161.13;5055683;28;20032;-60
2021/11/01 12:05:27;;;;;;;1.08;0.70;;;;;;;8.43;100.00;94154.47;5029011;28;20288;-55
2021/11/01 12:08:30;;;;;;;0.60;0.60;;;;;;;8.44;100.00;94148.06;5073583;28;20025;-60
2021/11/01 12:19:02;;;;;;;1.85;0.65;;;;;;;8.36;100.00;94133.44;5059639;28;20426;-58
2021/11/01 12:21:28;;;;;;;0.85;0.60;;;;;;;8.31;100.00;94124.63;5045909;28;20079;-55
2021/11/01 12:23:54;;;;;;;1.95;0.63;;;;;;;8.32;100.00;94135.03;5072064;28;20060;-55
2021/11/01 12:26:22;;;;;;;0.90;0.68;;;;;;;8.32;100.00;94134.22;5044144;28;20443;-58
2021/11/01 12:28:53;;;;;;;0.70;0.60;;;;;;;8.30;100.00;94128.38;5038063;28;20395;-58
2021/11/01 12:31:20;;;;;;;2.47;0.50;;;;;;;8.30;100.00;94131.03;5050249;28;20025;-62
2021/11/01 12:36:46;;;;;;;2.90;0.60;;;;;;;8.27;100.00;94112.91;5060619;28;20552;-57
2021/11/01 12:39:36;;;;;;;0.70;0.70;;;;;;;8.29;100.00;94118.78;5065276;28;20021;-57
2021/11/01 12:58:59;;;;;;;0.95;0.70;;;;;;;8.22;100.00;94100.38;5043767;28;20559;-61
2021/11/01 13:01:27;;;;;;;1.08;0.60;;;;;;;8.27;100.00;94100.38;5043535;28;20028;-58
2021/11/01 13:04:16;;;;;;;0.70;0.57;;;;;;;8.27;100.00;94094.25;5050850;28;20032;-60
2021/11/01 13:06:58;;;;;;;0.60;0.50;;;;;;;8.22;100.00;94088.91;5041786;28;20055;-61
2021/11/01 13:09:48;;;;;;;0.77;0.60;;;;;;;8.15;100.00;94083.91;5047729;28;20025;-58
2021/11/01 13:18:07;;;;;;;0.40;0.40;;;;;;;8.21;100.00;94072.13;5050999;28;20036;-54
2021/11/01 13:24:00;;;;;;;1.55;0.73;;;;;;;8.35;100.00;94081.13;5060304;28;20065;-56
2021/11/01 13:37:15;;;;;;;1.17;0.93;;;;;;;8.52;100.00;94066.66;5072367;28;20775;-57
2021/11/01 13:39:41;;;;;;;1.55;0.63;;;;;;;8.49;100.00;94075.22;5049970;28;20536;-62
2021/11/01 13:42:18;;;;;;;0.75;0.70;;;;;;;8.53;100.00;94077.03;5046946;28;20025;-59
2021/11/01 13:44:44;;;;;;;0.70;0.60;;;;;;;8.54;100.00;94080.50;5039005;28;20047;-58
2021/11/01 13:47:15;;;;;;;1.55;0.60;;;;;;;8.56;100.00;94067.69;5047655;28;20511;-54
2021/11/01 13:49:44;;;;;;;1.02;0.60;;;;;;;8.64;100.00;94064.44;5050303;28;20478;-60
2021/11/01 13:57:55;;;;;;;0.90;0.52;;;;;;;8.73;100.00;94062.78;5064972;28;20044;-57
2021/11/01 14:16:26;;;;;;;0.70;0.60;;;;;;;8.96;100.00;94027.34;5051612;28;20027;-57
2021/11/01 14:27:10;;;;;;;0.60;0.50;;;;;;;8.92;100.00;94022.84;5050425;28;20071;-58
2021/11/01 15:16:26;;;;;;;0.50;0.50;;;;;;;9.99;100.00;94005.69;5050876;28;20032;-53
2021/11/01 15:19:07;;;;;;;0.50;0.50;;;;;;;9.91;100.00;94001.78;5050681;28;20063;-52
2021/11/01 15:32:22;;;;;;;0.50;0.50;;;;;;;9.35;100.00;93989.03;5060173;28;20083;-55
2021/11/01 15:40:23;;;;;;;2.38;0.40;;;;;;;8.68;100.00;93970.19;4997268;28;20021;-60
2021/11/01 16:18:37;;;;;;;0.50;0.50;;;;;;;7.74;100.00;94028.06;5074289;28;20025;-61
2021/11/01 16:21:06;;;;;;;1.92;0.70;;;;;;;7.74;100.00;94028.06;5040140;28;20025;-60
2021/11/01 16:23:36;;;;;;;0.50;0.50;;;;;;;7.75;100.00;94029.66;5068651;28;20063;-61
2021/11/01 16:26:34;;;;;;;1.15;0.60;;;;;;;7.70;100.00;94026.19;5051825;28;20036;-61
2021/11/01 16:29:11;;;;;;;0.75;0.63;;;;;;;7.69;100.00;94029.94;5043894;28;20496;-59
2021/11/01 16:31:51;;;;;;;3.63;0.70;;;;;;;7.67;100.00;94032.88;5047170;28;20029;-61
2021/11/01 16:34:21;;;;;;;0.50;0.40;;;;;;;7.62;100.00;94027.56;5048259;28;20020;-60
2021/11/01 16:37:11;;;;;;;1.15;0.60;;;;;;;7.61;100.00;94027.84;5053337;28;20032;-60
2021/11/01 16:42:05;;;;;;;1.75;1.00;;;;;;;7.59;100.00;94029.97;5074507;28;20541;-60
2021/11/01 16:44:32;;;;;;;1.45;0.90;;;;;;;7.59;100.00;94029.97;5052898;28;20091;-60
2021/11/01 16:46:58;;;;;;;1.73;0.98;;;;;;;7.49;100.00;94034.28;5048470;28;20454;-59
2021/11/01 16:52:46;;;;;;;1.00;0.90;;;;;;;7.37;100.00;94040.94;5045159;28;20083;-60
2021/11/01 16:58:02;;;;;;;3.60;1.58;;;;;;;7.25;100.00;94051.91;5024979;28;20042;-60
2021/11/01 17:00:37;;;;;;;1.58;1.00;;;;;;;7.22;100.00;94061.22;5049848;28;20533;-59
2021/11/01 17:03:10;;;;;;;1.45;1.05;;;;;;;7.16;100.00;94064.16;5056663;28;20074;-59
2021/11/01 17:05:46;;;;;;;2.33;1.00;;;;;;;7.11;100.00;94064.19;5072869;28;20024;-60
2021/11/01 17:35:04;;;;;;;0.60;0.60;;;;;;;6.61;100.00;94100.34;5039207;28;20399;-67
2021/11/01 18:51:56;;;;;;;1.17;0.95;;;;;;;6.39;100.00;94140.47;5029648;28;20092;-62
2021/11/01 18:54:27;;;;;;;1.33;0.65;;;;;;;6.30;100.00;94142.06;5012620;28;20108;-62
2021/11/01 18:57:14;;;;;;;1.98;0.70;;;;;;;6.15;100.00;94140.13;5042488;28;20026;-63
2021/11/01 18:59:40;;;;;;;2.67;0.80;;;;;;;6.03;100.00;94145.66;5027767;28;20029;-64
2021/11/01 19:02:41;;;;;;;1.05;0.70;;;;;;;5.91;100.00;94147.72;5027328;28;20427;-63
2021/11/01 19:07:59;;;;;;;0.70;0.68;;;;;;;5.68;100.00;94142.78;5029478;28;20060;-64
2021/11/01 20:05:30;;;;;;;1.73;0.93;;;;;;;4.99;100.00;94116.28;4990369;28;20042;-64
2021/11/01 20:08:16;;;;;;;1.08;0.80;;;;;;;4.93;100.00;94108.28;5017854;28;20053;-64
2021/11/01 21:25:51;;;;;;;1.50;1.30;;;;;;;5.89;100.00;94019.59;5032227;28;20052;-65
2021/11/01 21:28:17;;;;;;;1.33;1.13;;;;;;;5.84;100.00;94024.88;5014192;28;20425;-65
2021/11/01 21:30:49;;;;;;;1.73;1.17;;;;;;;5.77;100.00;94022.50;4996195;28;20161;-64
2021/11/01 21:33:22;;;;;;;1.65;1.20;;;;;;;5.68;100.00;94017.94;5031685;28;20071;-66
2021/11/01 21:35:50;;;;;;;2.17;1.20;;;;;;;5.59;100.00;94022.13;5047471;28;20056;-65
2021/11/01 21:38:16;;;;;;;1.40;1.30;;;;;;;5.46;100.00;94013.59;5022350;28;20068;-64
2021/11/01 21:40:44;;;;;;;2.78;1.13;;;;;;;5.37;100.00;94014.34;5031431;28;20054;-66
2021/11/01 21:43:10;;;;;;;1.10;1.00;;;;;;;5.24;100.00;94015.59;5020029;28;20032;-65
2021/11/01 21:45:44;;;;;;;1.33;1.10;;;;;;;5.13;100.00;94017.41;5027042;28;20104;-65
2021/11/01 21:48:10;;;;;;;1.30;1.17;;;;;;;5.02;100.00;94026.38;5023583;28;20032;-65
2021/11/01 21:50:44;;;;;;;1.80;1.40;;;;;;;4.92;100.00;94021.00;5005548;28;20392;-65
2021/11/01 21:53:09;;;;;;;2.25;1.40;;;;;;;4.85;100.00;94018.53;5022350;28;20022;-66
2021/11/01 21:55:36;;;;;;;1.98;1.13;;;;;;;4.91;100.00;94016.75;5037000;28;20025;-65
2021/11/01 21:58:07;;;;;;;1.27;1.10;;;;;;;4.96;100.00;94011.44;5023920;28;20546;-65
2021/11/01 22:22:28;;;;;;;2.67;1.48;;;;;;;5.28;100.00;93974.19;5027605;28;20082;-63
2021/11/01 22:33:53;;;;;;;2.38;1.10;;;;;;;5.11;100.00;93955.81;5023670;28;20414;-65
2021/11/01 22:41:40;;;;;;;1.70;1.30;;;;;;;4.86;100.00;93967.06;5022284;28;20087;-65
2021/11/01 22:47:03;;;;;;;3.05;1.40;;;;;;;4.70;100.00;93965.41;5032049;28;20068;-63
2021/11/01 22:57:52;;;;;;;3.03;1.33;;;;;;;4.38;100.00;93959.34;5031282;28;20083;-65
2021/11/01 23:00:32;;;;;;;1.83;1.27;;;;;;;4.33;100.00;93966.19;5031016;28;20026;-65
2021/11/01 23:03:03;;;;;;;1.38;1.27;;;;;;;4.22;100.00;93967.16;5031011;28;20052;-64
2021/11/01 23:05:43;;;;;;;2.33;1.20;;;;;;;4.16;100.00;93970.03;5030804;28;20072;-65
2021/11/01 23:33:13;;;;;;;1.75;1.48;;;;;;;3.95;100.00;93934.59;5028451;28;20503;-65
2021/11/01 23:35:51;;;;;;;2.08;1.40;;;;;;;3.92;100.00;93927.97;5012249;28;20072;-65
2021/11/01 23:38:19;;;;;;;1.40;1.30;;;;;;;3.92;100.00;93927.97;5018044;28;20030;-64
2021/11/01 23:40:50;;;;;;;1.65;1.48;;;;;;;3.94;100.00;93927.69;5030870;28;20496;-64
2021/11/01 23:43:16;;;;;;;1.73;1.38;;;;;;;3.93;100.00;93929.56;5014084;28;20098;-65
2021/11/01 23:45:43;;;;;;;2.53;1.52;;;;;;;3.96;100.00;93933.53;5031782;28;20022;-64
2021/11/01 23:48:09;;;;;;;1.55;1.20;;;;;;;4.05;100.00;93926.75;5014212;28;20370;-63
2021/11/01 23:50:39;;;;;;;1.70;1.35;;;;;;;4.11;100.00;93923.06;5031683;28;20022;-64
2021/11/01 23:53:17;;;;;;;2.05;1.60;;;;;;;4.21;100.00;93917.84;5031972;28;20036;-65
2021/11/01 23:55:43;;;;;;;1.58;1.40;;;;;;;4.27;100.00;93916.84;5030506;28;20196;-65
2021/11/01 23:58:08;;;;;;;1.38;1.27;;;;;;;4.30;100.00;93918.19;5030521;28;20397;-65
